Terminal Aerodrome Forecast
Issued by NWS

Home | Current Version | Previous Version | Graphics & Text | Print | Product List | Glossary On
Versions: 1 2 3 4 5 6 7 8 9 10 11 12 13 14 15 16 17 18 19 20
000
FTUS43 KBIS 301700
TAFJMS
TAF
KJMS 301735Z 3018/3118 14009KT P6SM SKC
     FM310500 13009KT P6SM -SHRA VCTS BKN040CB
      TEMPO 3107/3111 TSRA SCT015 BKN035CB
     FM311100 24007KT P6SM BKN015
     FM311600 30008KT P6SM SCT015 BKN040=

USA.gov is the U.S. government's official web portal to all federal, state and local government web resources and services.